Terminal Aerodrome Forecast
Issued by NWS

Home | Current Version | Previous Version | Text Only | Print | Product List | Glossary On
Versions: 1 2 3 4 5 6 7 8 9 10 11 12 13 14 15 16
000
FTUS44 KTSA 041123
TAFRVS
TAF
KRVS 041123Z 0412/0512 09005KT 6SM -RA BKN007 OVC015
      TEMPO 0412/0414 2SM -RA BR OVC004
     FM041500 31004KT 4SM BR OVC007
     FM041800 34006KT P6SM BKN015
     FM042000 35004KT P6SM SKC
     FM050000 00000KT P6SM SCT250
     FM050900 00000KT 2SM BR FEW003 SCT250=

USA.gov is the U.S. government's official web portal to all federal, state and local government web resources and services.